createdAt,value
2019-04-30T00:00:46.093Z,101705.61
2019-04-30T00:03:24.923Z,101708.08
2019-04-30T00:05:57.358Z,101696.55
2019-04-30T00:08:30.234Z,101695.69
2019-04-30T00:10:57.761Z,101700.92
2019-04-30T00:13:27.898Z,101694.97
2019-04-30T00:16:01.404Z,101689.96
2019-04-30T00:18:30.871Z,101689.96
2019-04-30T00:21:00.514Z,101694.41
2019-04-30T00:23:30.921Z,101691.64
2019-04-30T00:26:06.282Z,101690.34
2019-04-30T00:28:32.136Z,101678.98
2019-04-30T00:31:01.823Z,101683.98
2019-04-30T00:33:31.670Z,101691.72
2019-04-30T00:36:01.386Z,101686.42
2019-04-30T00:38:34.273Z,101685.29
2019-04-30T00:41:06.790Z,101690.70
2019-04-30T00:43:35.363Z,101690.09
2019-04-30T00:46:05.831Z,101688.33
2019-04-30T00:48:35.762Z,101689.11
2019-04-30T00:51:07.557Z,101691.58
2019-04-30T00:53:36.770Z,101687.13
2019-04-30T00:56:06.524Z,101684.62
2019-04-30T00:58:36.207Z,101678.11
2019-04-30T01:01:43.475Z,101682.73
2019-04-30T01:04:19.541Z,101681.00
2019-04-30T01:06:50.125Z,101673.66
2019-04-30T01:09:19.791Z,101675.48
2019-04-30T01:11:49.532Z,101679.02
2019-04-30T01:14:23.215Z,101673.20
2019-04-30T01:16:50.608Z,101674.80
2019-04-30T01:19:29.159Z,101668.11
2019-04-30T01:21:53.015Z,101668.11
2019-04-30T01:24:23.536Z,101668.97
2019-04-30T01:26:54.547Z,101672.25
2019-04-30T01:29:24.370Z,101668.84
2019-04-30T01:31:54.068Z,101661.08
2019-04-30T01:34:23.834Z,101663.06
2019-04-30T01:36:53.481Z,101668.36
2019-04-30T01:39:23.791Z,101659.77
2019-04-30T01:41:54.792Z,101662.53
2019-04-30T01:44:24.609Z,101664.39
2019-04-30T01:46:54.278Z,101657.66
2019-04-30T01:49:25.733Z,101660.89
2019-04-30T01:51:57.320Z,101655.98
2019-04-30T01:54:26.660Z,101664.78
2019-04-30T01:57:20.299Z,101655.59
2019-04-30T02:00:09.658Z,101661.67
2019-04-30T02:02:40.711Z,101667.06
2019-04-30T02:05:10.755Z,101658.34
2019-04-30T02:07:40.517Z,101663.56
2019-04-30T02:10:10.649Z,101662.48
2019-04-30T02:12:40.311Z,101667.15
2019-04-30T02:15:10.376Z,101664.30
2019-04-30T02:17:40.046Z,101667.84
2019-04-30T02:20:10.079Z,101668.56
2019-04-30T02:22:39.839Z,101669.08
2019-04-30T02:25:09.979Z,101659.59
2019-04-30T02:27:39.647Z,101660.22
2019-04-30T02:30:11.355Z,101652.11
2019-04-30T02:32:41.130Z,101654.26
2019-04-30T02:35:21.913Z,101653.27
2019-04-30T02:38:11.751Z,101655.72
2019-04-30T02:40:42.592Z,101654.09
2019-04-30T02:43:13.988Z,101650.42
2019-04-30T02:45:49.603Z,101654.05
2019-04-30T02:48:21.669Z,101653.73
2019-04-30T02:50:53.307Z,101659.42
2019-04-30T02:54:03.541Z,101656.58
2019-04-30T02:56:33.187Z,101658.26
2019-04-30T02:59:03.733Z,101657.30
2019-04-30T03:01:33.809Z,101663.03
2019-04-30T03:04:03.570Z,101662.12
2019-04-30T03:06:33.220Z,101667.33
2019-04-30T03:09:03.980Z,101665.86
2019-04-30T03:11:33.813Z,101665.81
2019-04-30T03:14:03.614Z,101654.77
2019-04-30T03:16:41.025Z,101658.30
2019-04-30T03:19:23.738Z,101664.34
2019-04-30T03:22:03.043Z,101653.30
2019-04-30T03:24:32.856Z,101656.92
2019-04-30T03:27:02.591Z,101652.33
2019-04-30T03:29:32.261Z,101646.52
2019-04-30T03:32:03.280Z,101654.02
2019-04-30T03:34:33.567Z,101649.11
2019-04-30T03:37:03.359Z,101645.13
2019-04-30T03:39:34.034Z,101646.72
2019-04-30T03:42:04.209Z,101650.81
2019-04-30T03:44:33.915Z,101649.18
2019-04-30T03:47:03.624Z,101640.99
2019-04-30T03:49:33.290Z,101647.73
2019-04-30T03:52:03.154Z,101646.09
2019-04-30T03:54:32.782Z,101648.64
2019-04-30T03:57:02.451Z,101648.70
2019-04-30T03:59:32.105Z,101646.55
2019-04-30T04:02:12.889Z,101645.17
2019-04-30T04:04:45.930Z,101648.23
2019-04-30T04:07:25.265Z,101650.22
2019-04-30T04:10:01.886Z,101652.77
2019-04-30T04:12:31.552Z,101650.23
2019-04-30T04:15:03.885Z,101654.05
2019-04-30T04:17:32.830Z,101664.67
2019-04-30T04:20:02.560Z,101660.33
2019-04-30T04:22:32.226Z,101654.06
2019-04-30T04:25:01.909Z,101643.13
2019-04-30T04:27:31.897Z,101646.39
2019-04-30T04:30:01.593Z,101644.97
2019-04-30T04:32:31.703Z,101653.77
2019-04-30T04:35:01.367Z,101647.98
2019-04-30T04:37:31.031Z,101651.17
2019-04-30T04:40:00.688Z,101656.90
2019-04-30T04:42:33.043Z,101658.09
2019-04-30T04:45:01.719Z,101655.98
2019-04-30T04:47:31.429Z,101653.94
2019-04-30T04:50:01.205Z,101657.80
2019-04-30T04:52:31.736Z,101656.87
2019-04-30T04:55:01.611Z,101661.55
2019-04-30T04:57:31.279Z,101663.08
2019-04-30T05:00:07.100Z,101660.38
2019-04-30T05:02:54.578Z,101657.89
2019-04-30T05:05:24.327Z,101651.76
2019-04-30T05:07:54.014Z,101650.34
2019-04-30T05:10:23.682Z,101656.51
2019-04-30T05:12:53.369Z,101649.81
2019-04-30T05:15:23.119Z,101652.91
2019-04-30T05:17:52.790Z,101651.82
2019-04-30T05:20:22.470Z,101655.44
2019-04-30T05:22:52.150Z,101656.81
2019-04-30T05:25:21.816Z,101658.24
2019-04-30T05:27:51.497Z,101652.09
2019-04-30T05:30:22.027Z,101660.69
2019-04-30T05:32:51.734Z,101653.39
2019-04-30T05:35:21.629Z,101659.42
2019-04-30T05:37:51.335Z,101649.20
2019-04-30T05:40:21.083Z,101649.06
2019-04-30T05:42:50.778Z,101652.67
2019-04-30T05:45:20.600Z,101646.38
2019-04-30T05:47:50.650Z,101646.67
2019-04-30T05:50:20.473Z,101653.41
2019-04-30T05:52:50.219Z,101647.86
2019-04-30T05:55:20.004Z,101646.39
2019-04-30T05:57:55.964Z,101642.23
2019-04-30T06:00:21.567Z,101637.66
2019-04-30T06:02:51.467Z,101641.86
2019-04-30T06:05:21.488Z,101643.98
2019-04-30T06:07:51.949Z,101636.87
2019-04-30T06:10:37.327Z,101637.02
2019-04-30T06:13:12.294Z,101637.98
2019-04-30T06:15:48.982Z,101638.48
2019-04-30T06:18:20.414Z,101634.36
2019-04-30T06:20:50.216Z,101634.18
2019-04-30T06:23:20.131Z,101633.36
2019-04-30T06:25:59.508Z,101636.53
2019-04-30T06:28:23.547Z,101634.04
2019-04-30T06:30:53.398Z,101636.72
2019-04-30T06:33:23.219Z,101636.94
2019-04-30T06:35:53.913Z,101630.17
2019-04-30T06:38:24.663Z,101624.38
2019-04-30T06:40:54.341Z,101623.88
2019-04-30T06:43:24.712Z,101625.80
2019-04-30T06:45:54.831Z,101627.22
2019-04-30T06:48:25.261Z,101628.31
2019-04-30T06:50:55.179Z,101629.61
2019-04-30T06:53:24.846Z,101620.73
2019-04-30T06:55:54.499Z,101615.22
2019-04-30T06:58:24.198Z,101617.44
2019-04-30T07:00:53.930Z,101612.96
2019-04-30T07:03:23.710Z,101611.66
2019-04-30T07:05:54.086Z,101605.14
2019-04-30T07:08:51.948Z,101607.13
2019-04-30T07:11:24.099Z,101609.69
2019-04-30T07:13:54.063Z,101603.03
2019-04-30T07:16:23.736Z,101605.45
2019-04-30T07:18:53.558Z,101606.91
2019-04-30T07:21:23.341Z,101600.47
2019-04-30T07:23:53.029Z,101606.06
2019-04-30T07:26:24.518Z,101601.22
2019-04-30T07:28:55.231Z,101598.61
2019-04-30T07:31:25.385Z,101597.80
2019-04-30T07:33:55.054Z,101605.56
2019-04-30T07:36:42.406Z,101605.56
2019-04-30T07:38:56.921Z,101606.62
2019-04-30T07:41:30.942Z,101615.22
2019-04-30T07:43:59.464Z,101604.86
2019-04-30T07:46:29.948Z,101605.51
2019-04-30T07:49:00.174Z,101606.58
2019-04-30T07:51:31.888Z,101604.92
2019-04-30T07:54:01.309Z,101595.20
2019-04-30T07:56:37.193Z,101594.58
2019-04-30T07:59:03.100Z,101598.84
2019-04-30T08:01:32.808Z,101596.67
2019-04-30T08:04:21.567Z,101597.96
2019-04-30T08:06:51.321Z,101596.41
2019-04-30T08:09:22.210Z,101597.13
2019-04-30T08:11:51.970Z,101597.07
2019-04-30T08:14:24.490Z,101595.05
2019-04-30T08:16:53.102Z,101600.72
2019-04-30T08:22:06.941Z,101592.77
2019-04-30T08:24:36.659Z,101596.06
2019-04-30T08:27:06.399Z,101590.48
2019-04-30T08:29:36.190Z,101593.59
2019-04-30T08:32:06.005Z,101591.09
2019-04-30T08:34:35.674Z,101594.27
2019-04-30T08:37:16.692Z,101595.02
2019-04-30T08:39:36.743Z,101598.53
2019-04-30T08:42:06.481Z,101600.20
2019-04-30T08:44:36.182Z,101599.06
2019-04-30T08:47:05.927Z,101592.08
2019-04-30T08:49:35.944Z,101599.98
2019-04-30T08:52:05.861Z,101587.59
2019-04-30T08:54:36.614Z,101591.18
2019-04-30T08:57:06.368Z,101594.06
2019-04-30T08:59:36.138Z,101582.97
2019-04-30T09:02:15.237Z,101588.33
2019-04-30T09:04:38.832Z,101581.97
2019-04-30T09:07:10.249Z,101578.94
2019-04-30T09:09:40.122Z,101574.34
2019-04-30T09:12:11.428Z,101572.59
2019-04-30T09:14:41.116Z,101572.50
2019-04-30T09:17:10.785Z,101573.36
2019-04-30T09:19:40.464Z,101572.56
2019-04-30T09:22:15.026Z,101576.09
2019-04-30T09:24:41.524Z,101571.37
2019-04-30T09:27:11.201Z,101565.66
2019-04-30T09:29:40.877Z,101573.54
2019-04-30T09:32:10.565Z,101569.58
2019-04-30T09:34:40.488Z,101567.92
2019-04-30T09:37:10.294Z,101573.03
2019-04-30T09:39:39.957Z,101574.79
2019-04-30T09:42:09.645Z,101580.62
2019-04-30T09:44:39.334Z,101574.30
2019-04-30T09:47:09.101Z,101564.20
2019-04-30T09:49:41.270Z,101564.14
2019-04-30T09:52:10.642Z,101569.96
2019-04-30T09:54:40.902Z,101567.56
2019-04-30T09:57:11.518Z,101555.30
2019-04-30T09:59:41.232Z,101555.14
2019-04-30T10:02:11.651Z,101549.29
2019-04-30T10:04:41.627Z,101549.03
2019-04-30T10:07:11.730Z,101542.44
2019-04-30T10:09:41.469Z,101542.66
2019-04-30T10:12:13.995Z,101534.77
2019-04-30T10:14:43.916Z,101532.19
2019-04-30T10:17:32.625Z,101534.19
2019-04-30T10:20:02.513Z,101516.48
2019-04-30T10:22:32.188Z,101516.70
2019-04-30T10:25:01.869Z,101517.70
2019-04-30T10:27:31.773Z,101515.20
2019-04-30T10:30:01.705Z,101507.77
2019-04-30T10:32:32.435Z,101506.80
2019-04-30T10:35:02.311Z,101496.38
2019-04-30T10:37:32.368Z,101502.19
2019-04-30T10:40:02.235Z,101499.20
2019-04-30T10:42:34.738Z,101491.36
2019-04-30T10:45:06.834Z,101488.09
2019-04-30T10:47:36.518Z,101491.08
2019-04-30T10:50:09.943Z,101490.41
2019-04-30T10:52:39.496Z,101488.59
2019-04-30T11:27:27.311Z,101473.30
2019-04-30T11:30:03.530Z,101463.20
2019-04-30T11:32:29.612Z,101469.28
2019-04-30T11:34:59.516Z,101469.42
2019-04-30T11:37:29.293Z,101463.23
2019-04-30T11:39:59.103Z,101454.82
2019-04-30T11:42:28.775Z,101451.59
2019-04-30T11:44:58.712Z,101447.10
2019-04-30T11:47:32.583Z,101445.16
2019-04-30T11:50:02.970Z,101450.28
2019-04-30T11:52:32.890Z,101448.92
2019-04-30T11:55:03.237Z,101446.94
2019-04-30T11:57:33.319Z,101440.21
2019-04-30T12:00:03.791Z,101442.67
2019-04-30T12:02:43.772Z,101436.48
2019-04-30T12:05:15.915Z,101435.39
2019-04-30T12:08:10.780Z,101437.23
2019-04-30T12:10:48.306Z,101419.19
2019-04-30T12:13:27.912Z,101415.31
2019-04-30T12:15:58.922Z,101416.59
2019-04-30T12:18:29.421Z,101419.69
2019-04-30T12:20:59.376Z,101417.72
2019-04-30T12:23:29.219Z,101412.92
2019-04-30T12:26:02.347Z,101402.76
2019-04-30T12:28:30.462Z,101404.06
2019-04-30T12:31:00.273Z,101402.20
2019-04-30T12:33:30.281Z,101400.85
2019-04-30T12:36:09.042Z,101400.34
2019-04-30T12:38:37.660Z,101394.04
2019-04-30T12:41:07.743Z,101392.30
2019-04-30T12:43:37.639Z,101389.87
2019-04-30T12:46:07.415Z,101397.16
2019-04-30T12:48:59.451Z,101401.30
2019-04-30T12:51:45.283Z,101390.17
2019-04-30T12:54:17.907Z,101385.55
2019-04-30T12:57:04.376Z,101389.75
2019-04-30T12:59:34.204Z,101382.45
2019-04-30T13:02:05.954Z,101386.84
2019-04-30T13:04:35.635Z,101389.67
2019-04-30T13:07:06.306Z,101385.95
2019-04-30T13:09:36.543Z,101380.17
2019-04-30T13:12:09.829Z,101370.27
2019-04-30T13:14:50.815Z,101367.91
2019-04-30T13:17:10.178Z,101362.01
2019-04-30T13:19:39.909Z,101363.53
2019-04-30T13:22:11.335Z,101360.82
2019-04-30T13:24:41.318Z,101357.05
2019-04-30T13:27:11.113Z,101359.75
2019-04-30T13:29:58.493Z,101348.29
2019-04-30T13:32:32.891Z,101346.88
2019-04-30T13:35:02.893Z,101342.60
2019-04-30T13:37:39.577Z,101346.48
2019-04-30T13:40:23.758Z,101338.30
2019-04-30T13:42:53.838Z,101329.80
2019-04-30T13:45:23.602Z,101331.35
2019-04-30T13:47:53.284Z,101331.83
2019-04-30T13:50:24.250Z,101333.23
2019-04-30T13:52:53.945Z,101336.55
2019-04-30T13:55:23.647Z,101331.61
2019-04-30T13:57:53.297Z,101326.62
2019-04-30T14:00:26.421Z,101323.31
2019-04-30T14:03:06.521Z,101321.42
2019-04-30T14:05:36.202Z,101335.00
2019-04-30T14:08:31.911Z,101324.83
2019-04-30T14:11:01.653Z,101321.87
2019-04-30T14:13:31.336Z,101327.19
2019-04-30T14:16:01.120Z,101320.23
2019-04-30T14:18:33.921Z,101320.23
2019-04-30T14:21:02.446Z,101318.91
2019-04-30T14:23:32.228Z,101312.05
2019-04-30T14:26:02.490Z,101319.98
2019-04-30T14:28:32.553Z,101316.08
2019-04-30T14:31:02.378Z,101309.45
2019-04-30T14:33:32.846Z,101302.14
2019-04-30T14:36:02.854Z,101305.81
2019-04-30T14:38:32.735Z,101297.17
2019-04-30T14:41:03.461Z,101295.65
2019-04-30T14:43:42.294Z,101305.58
2019-04-30T14:46:31.018Z,101302.38
2019-04-30T14:49:29.515Z,101293.98
2019-04-30T14:52:00.023Z,101297.30
2019-04-30T14:54:44.452Z,101294.33
2019-04-30T14:57:33.519Z,101289.84
2019-04-30T15:00:22.251Z,101292.20
2019-04-30T15:02:58.700Z,101291.02
2019-04-30T15:05:38.594Z,101284.87
2019-04-30T15:08:00.918Z,101289.61
2019-04-30T15:10:30.640Z,101287.01
2019-04-30T15:13:02.590Z,101286.53
2019-04-30T15:15:32.291Z,101283.93
2019-04-30T15:18:01.978Z,101274.48
2019-04-30T15:20:31.645Z,101279.58
2019-04-30T15:23:21.265Z,101279.20
2019-04-30T15:25:48.989Z,101276.84
2019-04-30T15:28:19.095Z,101270.45
2019-04-30T15:30:48.969Z,101271.95
2019-04-30T15:33:42.180Z,101274.94
2019-04-30T15:36:12.143Z,101271.72
2019-04-30T15:39:05.224Z,101266.61
2019-04-30T15:41:36.343Z,101262.44
2019-04-30T15:44:06.593Z,101259.84
2019-04-30T15:46:36.504Z,101262.55
2019-04-30T15:49:06.521Z,101257.95
2019-04-30T15:51:37.347Z,101263.23
2019-04-30T15:54:07.513Z,101263.58
2019-04-30T15:56:40.358Z,101252.80
2019-04-30T15:59:31.940Z,101258.20
2019-04-30T16:02:05.965Z,101259.60
2019-04-30T16:04:53.156Z,101252.85
2019-04-30T16:07:22.847Z,101256.05
2019-04-30T16:10:14.627Z,101256.38
2019-04-30T16:12:51.591Z,101256.03
2019-04-30T16:15:21.465Z,101257.63
2019-04-30T16:17:54.115Z,101255.05
2019-04-30T16:20:23.809Z,101255.98
2019-04-30T16:22:53.622Z,101252.81
2019-04-30T16:25:23.378Z,101247.13
2019-04-30T16:27:53.363Z,101247.24
2019-04-30T16:30:23.326Z,101247.24
2019-04-30T16:32:53.112Z,101258.08
2019-04-30T16:35:22.818Z,101255.69
2019-04-30T16:37:52.840Z,101255.69
2019-04-30T16:40:22.549Z,101254.03
2019-04-30T16:42:52.313Z,101247.17
2019-04-30T16:45:23.064Z,101236.75
2019-04-30T16:47:52.807Z,101240.98
2019-04-30T16:50:22.620Z,101246.97
2019-04-30T16:52:52.328Z,101247.58
2019-04-30T16:55:23.009Z,101247.58
2019-04-30T16:57:52.730Z,101248.27
2019-04-30T17:00:23.421Z,101251.53
2019-04-30T17:02:58.511Z,101244.66
2019-04-30T17:05:39.583Z,101255.33
2019-04-30T17:08:14.820Z,101252.27
2019-04-30T17:11:06.023Z,101251.73
2019-04-30T17:13:41.000Z,101251.44
2019-04-30T17:16:13.949Z,101250.37
2019-04-30T17:18:43.701Z,101246.81
2019-04-30T17:21:13.447Z,101253.09
2019-04-30T17:23:43.207Z,101243.80
2019-04-30T17:26:12.967Z,101243.80
2019-04-30T17:28:42.681Z,101253.44
2019-04-30T17:31:13.564Z,101248.72
2019-04-30T17:33:43.370Z,101248.59
2019-04-30T17:36:13.401Z,101251.15
2019-04-30T17:38:43.075Z,101250.59
2019-04-30T17:41:12.771Z,101254.36
2019-04-30T17:43:42.467Z,101250.44
2019-04-30T17:46:12.594Z,101250.53
2019-04-30T17:48:42.334Z,101251.47
2019-04-30T17:51:12.073Z,101248.95
2019-04-30T17:53:59.512Z,101249.53
2019-04-30T17:56:29.211Z,101249.80
2019-04-30T17:58:58.886Z,101256.41
2019-04-30T18:01:28.851Z,101260.90
2019-04-30T18:03:59.714Z,101258.52
2019-04-30T18:06:29.445Z,101257.02
2019-04-30T18:08:59.127Z,101256.67
2019-04-30T18:11:29.596Z,101261.12
2019-04-30T18:13:59.383Z,101260.20
2019-04-30T18:16:29.085Z,101260.82
2019-04-30T18:19:18.683Z,101269.47
2019-04-30T18:21:55.388Z,101266.95
2019-04-30T18:24:52.164Z,101270.96
2019-04-30T18:27:24.931Z,101274.63
2019-04-30T18:29:54.642Z,101271.63
2019-04-30T18:32:26.205Z,101278.05
2019-04-30T18:34:56.018Z,101272.66
2019-04-30T18:37:25.703Z,101275.98
2019-04-30T18:39:59.972Z,101270.58
2019-04-30T18:42:29.073Z,101280.59
2019-04-30T18:44:59.129Z,101281.63
2019-04-30T18:47:28.837Z,101277.91
2019-04-30T18:49:59.436Z,101280.34
2019-04-30T18:52:29.297Z,101275.73
2019-04-30T18:54:59.528Z,101276.41
2019-04-30T18:57:29.269Z,101279.41
2019-04-30T18:59:59.141Z,101283.67
2019-04-30T19:02:30.946Z,101286.86
2019-04-30T19:05:01.601Z,101281.54
2019-04-30T19:07:36.814Z,101285.76
2019-04-30T19:10:38.143Z,101287.67
2019-04-30T19:13:18.914Z,101291.81
2019-04-30T19:16:19.676Z,101289.58
2019-04-30T19:18:47.246Z,101285.95
2019-04-30T19:21:16.942Z,101293.56
2019-04-30T19:23:48.615Z,101295.38
2019-04-30T19:26:19.006Z,101295.00
2019-04-30T19:28:49.542Z,101300.50
2019-04-30T19:31:19.967Z,101299.65
2019-04-30T19:33:49.936Z,101304.97
2019-04-30T19:36:21.008Z,101300.41
2019-04-30T19:38:51.163Z,101304.00
2019-04-30T19:41:20.852Z,101298.88
2019-04-30T19:43:50.541Z,101302.80
2019-04-30T19:46:20.366Z,101292.36
2019-04-30T19:48:50.730Z,101296.84
2019-04-30T19:51:20.551Z,101299.65
2019-04-30T19:53:50.320Z,101295.63
2019-04-30T19:56:20.562Z,101295.63
2019-04-30T19:59:01.539Z,101295.94
2019-04-30T20:01:21.831Z,101300.24
2019-04-30T20:03:51.639Z,101298.24
2019-04-30T20:06:21.356Z,101303.66
2019-04-30T20:08:51.170Z,101299.13
2019-04-30T20:11:20.859Z,101300.70
2019-04-30T20:13:50.558Z,101303.38
2019-04-30T20:16:20.291Z,101308.05
2019-04-30T20:18:50.038Z,101310.16
2019-04-30T20:21:28.343Z,101303.92
2019-04-30T20:23:52.935Z,101309.52
2019-04-30T20:26:22.706Z,101306.04
2019-04-30T20:28:52.482Z,101300.72
2019-04-30T20:31:22.209Z,101305.04
2019-04-30T20:33:53.657Z,101301.45
2019-04-30T20:36:23.535Z,101306.48
2019-04-30T20:39:18.194Z,101307.70
2019-04-30T20:41:51.037Z,101307.33
2019-04-30T20:44:20.886Z,101299.08
2019-04-30T20:46:50.659Z,101304.69
2019-04-30T20:49:20.448Z,101300.48
2019-04-30T20:51:55.598Z,101298.23
2019-04-30T20:54:22.507Z,101294.86
2019-04-30T20:56:52.247Z,101291.47
2019-04-30T20:59:22.042Z,101296.00
2019-04-30T21:01:51.902Z,101292.94
2019-04-30T21:04:21.693Z,101286.58
2019-04-30T21:06:51.398Z,101289.39
2019-04-30T21:09:21.074Z,101288.02
2019-04-30T21:11:50.764Z,101288.86
2019-04-30T21:14:20.537Z,101288.13
2019-04-30T21:16:50.281Z,101282.67
2019-04-30T21:19:19.982Z,101285.52
2019-04-30T21:21:49.833Z,101285.74
2019-04-30T21:24:19.695Z,101286.30
2019-04-30T21:26:49.435Z,101282.45
2019-04-30T21:29:19.468Z,101289.73
2019-04-30T21:32:08.205Z,101286.40
2019-04-30T21:34:42.183Z,101287.77
2019-04-30T21:37:11.984Z,101284.37
2019-04-30T21:39:41.734Z,101280.52
2019-04-30T21:42:11.417Z,101285.69
2019-04-30T21:44:41.153Z,101280.98
2019-04-30T21:47:10.827Z,101280.72
2019-04-30T21:49:41.628Z,101278.53
2019-04-30T21:52:11.842Z,101278.63
2019-04-30T21:54:43.142Z,101275.89
2019-04-30T21:57:12.936Z,101275.89
2019-04-30T21:59:42.669Z,101275.14
2019-04-30T22:02:12.362Z,101269.62
2019-04-30T22:04:42.261Z,101270.77
2019-04-30T22:07:12.070Z,101276.70
2019-04-30T22:09:42.965Z,101268.28
2019-04-30T22:12:19.142Z,101267.80
2019-04-30T22:14:49.138Z,101270.40
2019-04-30T22:17:19.365Z,101262.60
2019-04-30T22:19:51.678Z,101261.20
2019-04-30T22:22:21.512Z,101256.82
2019-04-30T22:24:51.260Z,101255.22
2019-04-30T22:27:21.612Z,101265.38
2019-04-30T22:29:51.455Z,101260.97
2019-04-30T22:32:30.655Z,101253.64
2019-04-30T22:35:19.623Z,101251.80
2019-04-30T22:37:53.582Z,101250.55
2019-04-30T22:40:23.342Z,101251.45
2019-04-30T22:42:53.024Z,101248.38
2019-04-30T22:45:30.478Z,101249.52
2019-04-30T22:48:00.157Z,101248.79
2019-04-30T22:50:29.972Z,101247.67
2019-04-30T22:52:59.845Z,101247.23
2019-04-30T22:55:29.541Z,101241.73
2019-04-30T22:57:59.219Z,101243.22
2019-04-30T23:00:39.206Z,101244.41
2019-04-30T23:03:11.670Z,101242.22
2019-04-30T23:05:41.722Z,101235.22
2019-04-30T23:08:11.493Z,101243.37
2019-04-30T23:10:41.151Z,101244.56
2019-04-30T23:13:10.950Z,101242.95
2019-04-30T23:15:40.738Z,101241.86
2019-04-30T23:18:10.491Z,101234.02
2019-04-30T23:20:40.206Z,101232.34
2019-04-30T23:23:09.900Z,101241.66
2019-04-30T23:25:39.583Z,101247.31
2019-04-30T23:28:09.288Z,101246.20
2019-04-30T23:30:39.103Z,101241.47
2019-04-30T23:33:08.797Z,101232.73
2019-04-30T23:35:38.616Z,101234.98
2019-04-30T23:38:08.362Z,101243.55
2019-04-30T23:40:48.301Z,101237.09
2019-04-30T23:43:18.277Z,101238.70
2019-04-30T23:45:48.314Z,101234.63
2019-04-30T23:48:18.068Z,101226.05
2019-04-30T23:50:47.856Z,101228.98
2019-04-30T23:53:17.535Z,101233.02
2019-04-30T23:55:47.277Z,101228.88
2019-04-30T23:58:17.018Z,101220.22
